Time;durP1;ratioP1;P1;durP2;ratioP2;P2;SDS_P1;SDS_P2;PMS_P1;PMS_P2;Temp;Humidity;BMP_temperature;BMP_pressure;BME280_temperature;BME280_humidity;BME280_pressure;Samples;Min_cycle;Max_cycle;Signal;HPM_P1;HPM_P2
2023/02/24 00:01:12;;;;;;;3.03;0.10;;;;;;;2.63;44.14;101275.75;4965824;28;20530;-72
2023/02/24 00:03:37;;;;;;;1.98;0.08;;;;;;;2.65;43.92;101272.31;4973482;28;20047;-72
2023/02/24 00:06:10;;;;;;;8.60;0.40;;;;;;;2.13;45.05;101264.53;4965208;28;20037;-76
2023/02/24 00:08:38;;;;;;;9.00;0.30;;;;;;;2.40;44.47;101262.84;4957791;28;20130;-77
2023/02/24 00:11:09;;;;;;;3.17;0.45;;;;;;;1.89;45.46;101266.22;4967373;28;20502;-76
2023/02/24 00:13:35;;;;;;;3.88;0.10;;;;;;;2.02;45.06;101263.66;4956332;28;20054;-74
2023/02/24 00:16:01;;;;;;;2.70;0.10;;;;;;;2.05;45.71;101266.25;4963868;28;20031;-75
2023/02/24 00:18:27;;;;;;;1.98;0.20;;;;;;;1.76;46.32;101253.31;4945561;28;20264;-76
2023/02/24 00:20:56;;;;;;;3.40;0.10;;;;;;;1.99;45.89;101246.47;4948339;28;20062;-79
2023/02/24 00:23:22;;;;;;;3.25;0.43;;;;;;;2.06;45.47;101242.19;4946791;28;20047;-77
2023/02/24 00:25:48;;;;;;;5.75;0.10;;;;;;;2.15;45.69;101231.88;4945060;28;20109;-74
2023/02/24 00:28:14;;;;;;;2.60;0.10;;;;;;;2.23;45.51;101230.16;4962335;28;20081;-74
2023/02/24 00:30:42;;;;;;;1.63;0.05;;;;;;;2.35;45.55;101230.19;4959060;28;20165;-75
2023/02/24 00:33:11;;;;;;;3.70;0.10;;;;;;;2.49;45.09;101230.16;4969072;28;20231;-75
2023/02/24 00:35:36;;;;;;;0.57;0.08;;;;;;;2.32;45.69;101224.16;4976088;28;20570;-75
2023/02/24 00:38:02;;;;;;;4.97;0.20;;;;;;;2.24;46.03;101219.00;4971604;28;20050;-75
2023/02/24 00:40:29;;;;;;;0.30;0.28;;;;;;;2.49;45.46;101216.41;4981517;28;20042;-73
2023/02/24 00:42:54;;;;;;;6.43;0.20;;;;;;;2.29;45.92;101209.53;4972235;28;20085;-74
2023/02/24 00:45:20;;;;;;;2.35;0.10;;;;;;;2.02;46.41;101200.06;4966285;28;20038;-71
2023/02/24 00:47:45;;;;;;;8.63;0.20;;;;;;;2.06;46.40;101200.91;4955489;28;20043;-72
2023/02/24 00:50:12;;;;;;;2.53;0.10;;;;;;;2.16;46.27;101196.66;4971577;28;20042;-73
2023/02/24 00:52:40;;;;;;;1.00;0.10;;;;;;;2.13;46.10;101187.16;4970158;28;20046;-72
2023/02/24 00:55:12;;;;;;;2.05;0.10;;;;;;;2.07;46.57;101192.34;4981948;28;20044;-71
2023/02/24 00:57:39;;;;;;;2.90;0.20;;;;;;;1.94;47.28;101187.16;4963741;28;20732;-71
2023/02/24 01:00:11;;;;;;;11.00;0.20;;;;;;;1.75;47.88;101185.41;4966633;28;20048;-70
2023/02/24 01:02:37;;;;;;;5.85;0.45;;;;;;;2.04;46.95;101182.91;4949757;28;20046;-70
2023/02/24 01:05:03;;;;;;;9.27;0.40;;;;;;;1.80;47.73;101177.72;4972521;28;20045;-70
2023/02/24 01:07:29;;;;;;;2.90;0.17;;;;;;;1.30;49.05;101163.81;4950319;28;20053;-71
2023/02/24 01:09:54;;;;;;;8.60;1.05;;;;;;;1.07;49.44;101166.31;4972183;28;20411;-70
2023/02/24 01:15:25;;;;;;;1.10;0.10;;;;;;;1.55;48.64;101148.44;4945058;28;20035;-71
2023/02/24 01:17:51;;;;;;;3.50;0.35;;;;;;;1.98;47.78;101141.63;4958797;28;20463;-71
2023/02/24 01:20:17;;;;;;;4.75;0.30;;;;;;;1.84;48.33;101139.06;4953812;28;20042;-69
2023/02/24 01:22:49;;;;;;;3.95;0.15;;;;;;;1.81;48.66;101133.88;4959586;28;20046;-72
2023/02/24 01:25:16;;;;;;;0.47;0.20;;;;;;;1.89;48.43;101129.59;4961641;28;20070;-71
2023/02/24 01:27:42;;;;;;;0.60;0.10;;;;;;;1.94;48.17;101125.28;4969072;28;20515;-72
2023/02/24 01:30:14;;;;;;;5.97;0.32;;;;;;;1.94;47.71;101120.13;4968254;28;20034;-72
2023/02/24 01:32:41;;;;;;;3.00;0.10;;;;;;;1.80;48.53;101115.88;4961598;28;20039;-72
2023/02/24 01:35:07;;;;;;;0.88;0.10;;;;;;;1.51;49.62;101109.81;4965286;28;20479;-72
2023/02/24 01:37:33;;;;;;;4.07;0.50;;;;;;;2.08;48.22;101101.22;4958092;28;20678;-72
2023/02/24 01:40:03;;;;;;;3.15;0.47;;;;;;;1.90;48.79;101102.09;4964437;28;20069;-72
2023/02/24 01:42:29;;;;;;;1.75;0.10;;;;;;;2.09;48.25;101093.50;4966422;28;20519;-73
2023/02/24 01:45:04;;;;;;;5.93;0.73;;;;;;;1.97;48.54;101096.06;4950962;28;20042;-72
2023/02/24 01:47:30;;;;;;;3.83;0.15;;;;;;;1.84;48.88;101092.66;4974337;28;20273;-71
2023/02/24 01:49:56;;;;;;;1.08;0.10;;;;;;;1.23;50.53;101092.56;4947691;28;20290;-73
2023/02/24 01:52:29;;;;;;;2.90;0.15;;;;;;;1.46;49.70;101080.63;4960678;28;20030;-72
2023/02/24 01:55:13;;;;;;;5.60;0.28;;;;;;;1.74;49.38;101085.78;4964060;28;20030;-72
2023/02/24 01:57:40;;;;;;;3.08;0.40;;;;;;;1.50;49.98;101071.16;4963562;28;20042;-72
2023/02/24 02:00:10;;;;;;;3.35;0.10;;;;;;;1.52;49.77;101069.44;4961558;28;20389;-72
2023/02/24 02:02:42;;;;;;;3.75;0.10;;;;;;;1.39;50.58;101068.53;4962642;28;20054;-72
2023/02/24 02:05:09;;;;;;;5.93;0.40;;;;;;;1.30;50.37;101065.94;4975428;28;20407;-73
2023/02/24 02:07:37;;;;;;;2.58;0.10;;;;;;;0.77;51.47;101061.50;4960334;28;20049;-72
2023/02/24 03:56:39;;;;;;;3.17;0.17;;;;;;;0.89;55.81;100881.44;4960497;28;20267;-75
2023/02/24 03:59:40;;;;;;;7.97;0.95;;;;;;;0.51;57.13;100873.69;4974881;28;20551;-75
2023/02/24 04:02:21;;;;;;;4.30;0.85;;;;;;;1.03;55.50;100859.09;4963658;28;20104;-76
2023/02/24 04:04:57;;;;;;;2.55;0.30;;;;;;;0.96;55.02;100852.25;4967285;28;20026;-75
2023/02/24 04:07:54;;;;;;;;;;;;;;;0.96;55.39;100838.53;4961468;28;20042;-76
2023/02/24 04:10:35;;;;;;;1.38;0.30;;;;;;;0.94;55.10;100833.38;4967280;28;20036;-76
2023/02/24 04:13:24;;;;;;;5.40;0.15;;;;;;;1.11;55.12;100839.38;4963104;28;20038;-76
2023/02/24 04:15:58;;;;;;;2.55;0.45;;;;;;;1.24;54.62;100826.50;4966075;28;20069;-75
2023/02/24 04:18:29;;;;;;;9.15;0.20;;;;;;;1.37;53.97;100828.16;4962263;28;20125;-71
2023/02/24 04:20:58;;;;;;;5.18;0.20;;;;;;;0.75;55.68;100808.50;4965123;28;20039;-71
2023/02/24 04:23:30;;;;;;;6.82;0.90;;;;;;;0.95;55.31;100804.22;4965889;28;20042;-71
2023/02/24 04:25:56;;;;;;;2.43;0.33;;;;;;;0.65;55.63;100798.22;4962602;28;20081;-72
2023/02/24 04:28:24;;;;;;;3.08;0.47;;;;;;;0.61;56.56;100799.09;4961326;28;20542;-71
2023/02/24 04:30:53;;;;;;;4.32;0.22;;;;;;;0.57;56.40;100784.53;4981964;28;20030;-71
2023/02/24 04:33:19;;;;;;;6.30;0.20;;;;;;;0.79;55.58;100787.06;4948574;28;20054;-72
2023/02/24 04:35:49;;;;;;;7.28;0.65;;;;;;;1.14;54.83;100773.31;4976960;28;20045;-72
2023/02/24 04:38:15;;;;;;;12.65;0.50;;;;;;;1.40;54.02;100766.38;4962633;28;20053;-71
2023/02/24 04:40:41;;;;;;;1.65;0.32;;;;;;;1.23;54.96;100766.41;4961028;28;20045;-72
2023/02/24 04:43:07;;;;;;;5.82;0.93;;;;;;;1.08;55.47;100764.75;4963002;28;20046;-72
2023/02/24 04:45:33;;;;;;;3.42;0.30;;;;;;;0.79;56.06;100751.94;4967014;28;20052;-72
2023/02/24 04:48:00;;;;;;;7.18;0.50;;;;;;;0.80;55.85;100751.06;4960276;28;20504;-72
2023/02/24 04:50:33;;;;;;;6.38;0.50;;;;;;;0.63;56.50;100745.06;4962742;28;20030;-71
2023/02/24 04:52:59;;;;;;;10.98;1.52;;;;;;;0.75;56.15;100739.03;4961918;28;20541;-73
2023/02/24 04:55:36;;;;;;;1.45;0.47;;;;;;;0.71;56.69;100727.06;4964026;28;20038;-71
2023/02/24 04:58:02;;;;;;;3.83;0.60;;;;;;;0.80;56.25;100727.06;4961215;28;20061;-72
2023/02/24 05:00:34;;;;;;;3.67;0.20;;;;;;;1.14;55.29;100714.09;4963245;28;20054;-71
2023/02/24 05:03:03;;;;;;;5.75;0.77;;;;;;;1.46;54.34;100707.13;4967494;28;20088;-72
2023/02/24 05:05:32;;;;;;;1.98;0.28;;;;;;;1.01;55.34;100696.09;4953545;28;20039;-72
2023/02/24 05:08:03;;;;;;;4.88;0.85;;;;;;;0.27;58.08;100695.38;4944943;28;20135;-71
2023/02/24 05:10:42;;;;;;;3.42;0.40;;;;;;;0.92;56.38;100685.84;4947644;28;20043;-71
2023/02/24 05:13:10;;;;;;;8.85;0.52;;;;;;;1.48;55.33;100674.50;4943342;28;20432;-70
2023/02/24 05:15:39;;;;;;;5.25;0.40;;;;;;;0.61;57.31;100675.66;4942728;28;20030;-71
2023/02/24 05:18:07;;;;;;;9.48;0.57;;;;;;;0.98;56.35;100660.09;4943851;28;20464;-71
2023/02/24 05:23:44;;;;;;;8.50;0.68;;;;;;;0.60;57.83;100653.34;4943547;28;20074;-76
2023/02/24 05:26:15;;;;;;;5.10;0.57;;;;;;;0.65;57.71;100649.03;4944609;28;20331;-75
2023/02/24 05:28:43;;;;;;;8.30;0.83;;;;;;;0.47;58.75;100646.50;4944492;28;20038;-78
2023/02/24 05:31:14;;;;;;;11.43;1.58;;;;;;;1.21;56.28;100634.25;4946427;28;20282;-78
2023/02/24 05:33:42;;;;;;;7.03;0.30;;;;;;;0.93;57.44;100620.66;4956601;28;20480;-78
2023/02/24 05:36:14;;;;;;;2.08;0.17;;;;;;;0.77;57.91;100625.00;4957075;28;20041;-78
2023/02/24 05:38:39;;;;;;;9.97;0.90;;;;;;;0.60;57.96;100611.34;4953078;28;20042;-73
2023/02/24 05:41:07;;;;;;;7.13;0.50;;;;;;;0.58;58.54;100602.78;4947926;28;20400;-68
2023/02/24 05:43:34;;;;;;;3.90;0.73;;;;;;;0.86;57.64;100598.41;4941740;28;20049;-70
2023/02/24 05:46:05;;;;;;;8.30;0.80;;;;;;;0.75;57.81;100590.72;4941553;28;20035;-70
2023/02/24 05:48:33;;;;;;;6.70;0.75;;;;;;;0.72;58.36;100579.56;4942927;28;20118;-70
2023/02/24 05:51:01;;;;;;;8.55;0.40;;;;;;;0.36;58.92;100578.81;4942165;28;20401;-70
2023/02/24 05:53:27;;;;;;;6.43;0.77;;;;;;;0.96;57.67;100571.75;4941832;28;20043;-69
2023/02/24 05:55:53;;;;;;;2.65;0.20;;;;;;;1.04;57.58;100567.41;4942728;28;20093;-69
2023/02/24 05:58:18;;;;;;;7.47;1.10;;;;;;;0.56;58.85;100553.91;4940557;28;20071;-69
2023/02/24 06:00:45;;;;;;;9.95;0.30;;;;;;;0.52;58.95;100564.19;4941123;28;20037;-68
2023/02/24 06:03:16;;;;;;;9.18;0.47;;;;;;;0.58;58.73;100543.63;4945950;28;20042;-69
2023/02/24 06:05:42;;;;;;;7.28;0.50;;;;;;;0.82;58.00;100542.66;4941658;28;20122;-69
2023/02/24 06:08:10;;;;;;;4.65;0.90;;;;;;;0.53;58.98;100535.91;4941797;28;20036;-69
2023/02/24 06:10:39;;;;;;;7.10;0.50;;;;;;;0.62;58.82;100533.31;4941955;28;20400;-73
2023/02/24 06:13:05;;;;;;;1.10;0.47;;;;;;;0.78;58.26;100533.25;4941923;28;20165;-72
2023/02/24 06:15:31;;;;;;;1.95;0.20;;;;;;;0.55;58.85;100530.78;4958704;28;20171;-73
2023/02/24 06:17:59;;;;;;;9.75;1.27;;;;;;;0.42;59.72;100529.97;4942029;28;20254;-73
2023/02/24 06:20:27;;;;;;;5.05;0.50;;;;;;;0.33;59.64;100519.72;4946950;28;20104;-72
2023/02/24 06:22:56;;;;;;;2.30;0.82;;;;;;;0.51;59.07;100518.78;4952075;28;21189;-72
2023/02/24 06:25:23;;;;;;;3.75;0.30;;;;;;;0.66;58.59;100513.59;4955301;28;20039;-72
2023/02/24 06:27:54;;;;;;;8.57;1.08;;;;;;;0.79;57.97;100509.22;4951715;28;20053;-72
2023/02/24 06:30:21;;;;;;;7.03;0.45;;;;;;;0.60;59.53;100509.31;4954090;28;20038;-72
2023/02/24 06:32:47;;;;;;;8.43;0.43;;;;;;;0.63;58.98;100508.44;4945140;28;20039;-72
2023/02/24 06:35:13;;;;;;;5.68;0.50;;;;;;;0.31;59.21;100495.72;4943548;28;20101;-73
2023/02/24 06:37:39;;;;;;;6.90;0.88;;;;;;;0.08;60.74;100499.22;4942796;28;21120;-72
2023/02/24 06:40:16;;;;;;;6.93;0.68;;;;;;;0.58;59.29;100505.88;4941542;28;20030;-72
2023/02/24 06:42:47;;;;;;;8.38;0.43;;;;;;;0.32;60.23;100492.28;4944739;28;20157;-72
2023/02/24 06:45:14;;;;;;;7.40;0.82;;;;;;;0.67;59.50;100495.53;4942135;28;20541;-71
2023/02/24 06:47:41;;;;;;;6.85;0.70;;;;;;;-0.10;61.95;100488.97;4947796;28;20125;-74
2023/02/24 06:50:09;;;;;;;4.30;0.95;;;;;;;0.25;60.67;100487.16;4951975;28;20057;-68
2023/02/24 06:52:35;;;;;;;6.68;0.57;;;;;;;-0.09;61.70;100482.97;4957397;28;20053;-70
2023/02/24 06:55:05;;;;;;;5.68;0.60;;;;;;;0.80;59.25;100475.75;4961132;28;20034;-68
2023/02/24 06:57:33;;;;;;;5.30;0.38;;;;;;;0.46;60.12;100470.81;4949534;28;20071;-68
2023/02/24 07:00:15;;;;;;;4.22;1.05;;;;;;;0.60;59.56;100467.31;4961602;28;20030;-67
2023/02/24 07:02:40;;;;;;;4.32;0.60;;;;;;;0.80;59.56;100475.75;4959861;28;21013;-68
2023/02/24 07:05:13;;;;;;;2.30;0.52;;;;;;;0.47;60.03;100467.34;4965685;28;20045;-71
2023/02/24 07:07:44;;;;;;;3.65;0.52;;;;;;;0.56;60.24;100471.59;4945614;28;20747;-71
2023/02/24 07:10:14;;;;;;;1.77;0.60;;;;;;;0.12;61.67;100464.91;4966041;28;20066;-73
2023/02/24 07:12:40;;;;;;;4.28;0.73;;;;;;;0.31;61.19;100462.31;4964964;28;20050;-77
2023/02/24 07:15:07;;;;;;;9.85;0.60;;;;;;;0.43;61.01;100457.94;4962700;28;20338;-73
2023/02/24 07:17:32;;;;;;;6.22;1.35;;;;;;;0.93;59.53;100450.81;4957010;28;20054;-73
2023/02/24 07:20:09;;;;;;;5.35;0.73;;;;;;;0.28;61.70;100437.47;4983858;28;20046;-73
2023/02/24 07:22:36;;;;;;;5.53;0.82;;;;;;;0.49;61.09;100441.63;4962304;28;20046;-68
2023/02/24 07:25:03;;;;;;;5.72;1.15;;;;;;;0.13;61.89;100437.53;4977020;28;20049;-70
2023/02/24 07:27:29;;;;;;;6.40;1.10;;;;;;;0.57;60.98;100434.75;4957434;28;20132;-72
2023/02/24 07:29:54;;;;;;;1.83;0.47;;;;;;;0.62;60.29;100434.72;4961334;28;20081;-70
2023/02/24 07:32:21;;;;;;;9.63;0.68;;;;;;;0.90;60.33;100422.50;4952065;28;20409;-70
2023/02/24 07:34:47;;;;;;;11.00;1.48;;;;;;;0.43;61.11;100428.81;4944004;28;20778;-78
2023/02/24 07:37:13;;;;;;;5.43;0.57;;;;;;;0.19;62.30;100424.63;4944299;28;20250;-68
2023/02/24 07:39:41;;;;;;;10.70;1.48;;;;;;;0.77;61.20;100410.59;4939042;28;20110;-72
2023/02/24 07:42:09;;;;;;;6.35;0.75;;;;;;;0.48;61.97;100414.22;4941078;28;20165;-73
2023/02/24 07:44:45;;;;;;;7.07;0.80;;;;;;;0.66;61.37;100395.25;4957242;28;20058;-73
2023/02/24 07:47:10;;;;;;;11.65;0.90;;;;;;;0.10;63.31;100394.72;4959794;28;20097;-69
2023/02/24 07:49:38;;;;;;;9.75;0.90;;;;;;;0.12;62.58;100398.09;4943111;28;21268;-70
2023/02/24 07:52:06;;;;;;;5.22;0.90;;;;;;;0.62;62.10;100381.56;4944968;28;20058;-69
2023/02/24 07:54:33;;;;;;;6.10;1.08;;;;;;;0.73;62.01;100370.34;4940762;28;20094;-69
2023/02/24 07:56:58;;;;;;;6.00;1.10;;;;;;;0.57;62.29;100373.03;4950378;28;20046;-69
2023/02/24 07:59:27;;;;;;;4.10;0.70;;;;;;;0.74;61.81;100364.31;4942851;28;20034;-69
2023/02/24 08:01:54;;;;;;;2.92;1.35;;;;;;;0.71;62.16;100352.34;4948217;28;20950;-71
2023/02/24 08:04:24;;;;;;;6.60;1.05;;;;;;;0.71;62.65;100356.63;4943456;28;20499;-70
2023/02/24 08:06:54;;;;;;;5.30;1.08;;;;;;;0.57;63.05;100342.16;4949208;28;20118;-69
2023/02/24 08:10:08;;;;;;;8.15;1.30;;;;;;;0.70;63.00;100345.47;4962829;28;20033;-70
2023/02/24 08:12:09;;;;;;;3.90;1.48;;;;;;;0.43;63.25;100347.38;4965480;28;20684;-70
2023/02/24 08:14:43;;;;;;;8.00;1.65;;;;;;;0.78;62.86;100337.72;4964053;28;20524;-70
2023/02/24 08:17:10;;;;;;;3.15;1.58;;;;;;;1.20;61.40;100339.06;4965478;28;20038;-69
2023/02/24 08:19:39;;;;;;;3.63;1.00;;;;;;;0.82;62.86;100334.25;4976475;28;20165;-69
2023/02/24 08:22:19;;;;;;;5.50;1.30;;;;;;;0.80;63.42;100320.56;4989714;28;20141;-68
2023/02/24 08:24:55;;;;;;;6.57;1.38;;;;;;;1.32;61.57;100330.34;4986080;28;20113;-69
2023/02/24 08:27:23;;;;;;;11.65;1.75;;;;;;;0.72;63.17;100317.19;4964649;28;20047;-70
2023/02/24 08:29:58;;;;;;;8.18;1.33;;;;;;;1.21;62.35;100322.72;4965833;28;20153;-73
2023/02/24 08:32:35;;;;;;;5.70;1.70;;;;;;;1.31;62.35;100323.50;4968720;28;20045;-72
2023/02/24 08:35:13;;;;;;;11.05;2.45;;;;;;;0.89;63.69;100311.03;4964487;28;20046;-71
2023/02/24 08:37:45;;;;;;;10.65;1.75;;;;;;;1.22;62.77;100305.59;4949477;28;20207;-72
2023/02/24 08:43:18;;;;;;;;;;;;;;;1.29;62.65;100320.09;4950005;28;20407;-72
2023/02/24 08:45:59;;;;;;;4.53;1.33;;;;;;;0.83;64.27;100305.91;4964411;28;20317;-73
2023/02/24 08:48:37;;;;;;;10.07;1.65;;;;;;;1.75;61.61;100291.25;4958356;28;20585;-72
2023/02/24 08:51:22;;;;;;;6.68;2.33;;;;;;;1.52;62.30;100288.97;4965402;28;20411;-73
2023/02/24 08:53:52;;;;;;;12.07;2.03;;;;;;;1.25;63.27;100287.50;4968993;28;20490;-73
2023/02/24 08:56:23;;;;;;;6.03;2.35;;;;;;;1.70;62.30;100296.44;4959567;28;20035;-73
2023/02/24 08:58:55;;;;;;;4.05;1.63;;;;;;;1.64;62.35;100286.25;4961384;28;20736;-73
2023/02/24 09:01:33;;;;;;;5.95;1.80;;;;;;;2.15;60.79;100293.28;4958585;28;20384;-73
2023/02/24 09:04:01;;;;;;;5.38;2.28;;;;;;;1.78;62.23;100296.38;4962969;28;20245;-72
2023/02/24 09:06:39;;;;;;;5.35;2.10;;;;;;;2.34;60.47;100292.16;4954162;28;20819;-72
2023/02/24 09:09:23;;;;;;;6.30;2.17;;;;;;;2.31;60.94;100293.91;4957753;28;20092;-73
2023/02/24 09:11:57;;;;;;;2.58;1.33;;;;;;;2.29;60.81;100278.47;4959368;28;20046;-73
2023/02/24 09:14:35;;;;;;;5.65;2.10;;;;;;;2.54;60.49;100265.19;4969350;28;20122;-72
2023/02/24 09:17:02;;;;;;;3.28;1.40;;;;;;;2.81;59.56;100265.59;4957509;28;20677;-72
2023/02/24 09:27:41;;;;;;;9.18;2.72;;;;;;;2.41;60.94;100243.06;4953258;28;20664;-73
2023/02/24 09:30:24;;;;;;;10.85;2.42;;;;;;;2.91;60.05;100234.44;4958295;28;20717;-72
2023/02/24 09:32:59;;;;;;;9.68;1.85;;;;;;;2.42;61.92;100231.84;4956044;28;20050;-73
2023/02/24 09:35:30;;;;;;;3.60;2.13;;;;;;;2.58;62.58;100233.31;4954838;28;20054;-72
2023/02/24 09:38:04;;;;;;;7.75;2.05;;;;;;;3.19;60.78;100239.91;4985627;28;20052;-71
2023/02/24 09:40:39;;;;;;;6.03;1.98;;;;;;;3.70;60.41;100232.91;4957079;28;20121;-72
2023/02/24 09:43:16;;;;;;;10.00;1.77;;;;;;;3.78;59.74;100231.88;4972184;28;20618;-71
2023/02/24 09:46:15;;;;;;;7.82;2.10;;;;;;;3.99;57.94;100227.94;4955404;28;20034;-72
2023/02/24 09:49:04;;;;;;;11.05;1.80;;;;;;;5.41;56.90;100227.78;4953755;28;20030;-72
2023/02/24 09:51:41;;;;;;;4.85;1.20;;;;;;;6.63;54.59;100208.41;4968749;28;20185;-72
2023/02/24 09:54:18;;;;;;;4.78;1.48;;;;;;;7.56;52.71;100205.97;4958678;28;20230;-72
2023/02/24 09:57:06;;;;;;;6.55;1.17;;;;;;;7.28;50.54;100213.00;4958645;28;20038;-72
2023/02/24 10:00:23;;;;;;;5.22;0.70;;;;;;;7.16;51.38;100208.28;4960250;28;20039;-78
2023/02/24 10:02:58;;;;;;;7.35;0.85;;;;;;;6.94;51.25;100196.97;4964685;28;20054;-72
2023/02/24 10:05:37;;;;;;;5.05;1.05;;;;;;;7.30;51.48;100185.22;4962552;28;20048;-73
2023/02/24 10:08:24;;;;;;;6.97;1.42;;;;;;;6.55;51.42;100189.63;4979656;28;20707;-81
2023/02/24 10:11:05;;;;;;;9.15;0.90;;;;;;;6.97;52.15;100184.69;4971580;28;20053;-73
2023/02/24 10:13:35;;;;;;;9.77;1.55;;;;;;;6.54;52.84;100182.75;4971266;28;20042;-75
2023/02/24 10:16:06;;;;;;;11.70;0.90;;;;;;;7.08;53.24;100184.31;4970622;28;20101;-72
2023/02/24 10:18:39;;;;;;;12.77;1.63;;;;;;;7.01;51.43;100172.44;4952906;28;20046;-71
2023/02/24 10:21:19;;;;;;;13.27;1.40;;;;;;;6.59;51.43;100171.31;4965030;28;20061;-71
2023/02/24 10:24:13;;;;;;;11.57;1.05;;;;;;;5.69;52.55;100182.03;4956085;28;20058;-71
2023/02/24 10:26:51;;;;;;;17.23;1.70;;;;;;;5.72;52.39;100171.56;4969228;28;20392;-71
2023/02/24 10:29:54;;;;;;;15.52;1.70;;;;;;;5.16;53.89;100167.16;4952754;28;20052;-70
2023/02/24 10:32:32;;;;;;;16.73;1.60;;;;;;;5.91;52.11;100167.50;4950644;28;20046;-72
2023/02/24 10:35:00;;;;;;;15.75;1.83;;;;;;;5.91;51.80;100151.94;4958283;28;20492;-71
2023/02/24 10:37:27;;;;;;;17.60;2.35;;;;;;;7.13;50.39;100161.59;4966704;28;20496;-71
2023/02/24 10:39:59;;;;;;;18.45;1.17;;;;;;;7.14;48.93;100154.66;4973315;28;20073;-71
2023/02/24 10:42:33;;;;;;;;;;;;;;;7.70;47.51;100157.72;4954428;28;20136;-71
2023/02/24 10:45:30;;;;;;;16.75;1.92;;;;;;;7.30;48.70;100158.38;4989882;28;20303;-72
2023/02/24 10:48:07;;;;;;;14.55;1.88;;;;;;;6.49;49.27;100165.59;4955105;28;20065;-71
2023/02/24 10:50:43;;;;;;;14.60;2.13;;;;;;;5.73;50.27;100163.72;4955709;28;20089;-73
2023/02/24 10:53:27;;;;;;;15.60;1.30;;;;;;;5.61;51.27;100175.34;4961378;28;20623;-74
2023/02/24 10:58:55;;;;;;;13.73;1.92;;;;;;;5.57;50.88;100162.50;4967515;28;20546;-74
2023/02/24 11:01:39;;;;;;;13.57;2.13;;;;;;;5.14;51.38;100141.28;4960365;28;20034;-73
2023/02/24 11:04:21;;;;;;;21.95;1.95;;;;;;;5.50;50.97;100151.47;4955731;28;20301;-73
2023/02/24 11:06:56;;;;;;;;;;;;;;;5.72;48.72;100132.66;4971763;28;20040;-73
2023/02/24 11:18:01;;;;;;;19.30;1.85;;;;;;;6.70;47.88;100134.59;4959060;28;20610;-74
2023/02/24 11:20:34;;;;;;;16.70;1.85;;;;;;;6.85;47.96;100130.59;4956237;28;20129;-75
2023/02/24 11:23:03;;;;;;;18.02;1.55;;;;;;;6.80;47.77;100127.31;4957812;28;20496;-75
2023/02/24 11:25:39;;;;;;;9.63;1.85;;;;;;;6.75;47.86;100124.88;4977621;28;20360;-74
2023/02/24 11:28:48;;;;;;;24.40;1.65;;;;;;;6.31;48.53;100119.50;4946653;28;20042;-74
2023/02/24 11:31:39;;;;;;;18.40;1.90;;;;;;;6.22;49.12;100114.59;4935981;28;20034;-74
2023/02/24 11:34:27;;;;;;;15.02;2.15;;;;;;;6.46;48.63;100111.19;4956788;28;20058;-72
2023/02/24 11:37:13;;;;;;;11.50;0.82;;;;;;;6.99;46.69;100104.94;4973668;28;20034;-74
2023/02/24 11:39:57;;;;;;;20.63;1.77;;;;;;;6.41;47.96;100094.91;4940294;28;20494;-73
2023/02/24 11:42:44;;;;;;;16.55;1.42;;;;;;;6.19;47.41;100088.75;4940686;28;20953;-74
2023/02/24 11:45:34;;;;;;;15.90;1.80;;;;;;;6.77;46.77;100089.28;4956822;28;20038;-74
2023/02/24 11:48:13;;;;;;;18.77;2.17;;;;;;;7.48;46.16;100081.41;4953693;28;20112;-73
2023/02/24 11:50:46;;;;;;;17.02;2.17;;;;;;;7.41;45.33;100078.22;4968936;28;20034;-73
2023/02/24 11:53:14;;;;;;;;;;;;;;;7.02;45.04;100075.41;4984100;28;20061;-73
2023/02/24 11:55:43;;;;;;;11.32;1.70;;;;;;;6.63;46.24;100066.44;4956781;28;20307;-74
2023/02/24 11:58:19;;;;;;;12.10;2.08;;;;;;;6.62;47.27;100071.69;4952545;28;20154;-74
2023/02/24 12:00:58;;;;;;;12.60;1.20;;;;;;;5.93;48.32;100077.50;4951086;28;20133;-73
2023/02/24 12:03:36;;;;;;;13.32;1.90;;;;;;;5.54;49.30;100071.88;4954813;28;20042;-73
2023/02/24 12:06:15;;;;;;;14.00;1.52;;;;;;;5.57;49.86;100071.75;4957475;28;20031;-73
2023/02/24 12:08:45;;;;;;;16.63;1.35;;;;;;;5.40;50.09;100072.31;4949773;28;20081;-73
2023/02/24 12:11:40;;;;;;;9.52;1.45;;;;;;;5.15;50.16;100067.88;4953198;28;20030;-73
2023/02/24 12:14:31;;;;;;;12.23;1.13;;;;;;;4.81;51.11;100066.25;4950032;28;20054;-73
2023/02/24 12:17:24;;;;;;;14.32;1.40;;;;;;;4.78;50.56;100068.91;4957572;28;20411;-73
2023/02/24 12:20:05;;;;;;;11.82;1.20;;;;;;;5.46;48.91;100056.56;4959255;28;20252;-73
2023/02/24 12:22:43;;;;;;;24.42;2.10;;;;;;;5.16;49.93;100054.03;4950503;28;20093;-73
2023/02/24 12:25:13;;;;;;;11.63;1.58;;;;;;;4.93;50.65;100059.91;4955457;28;20145;-73
2023/02/24 12:27:56;;;;;;;18.08;0.77;;;;;;;5.81;48.11;100047.63;4939392;28;20047;-74
2023/02/24 12:30:47;;;;;;;13.60;0.73;;;;;;;7.14;46.01;100035.13;4954165;28;20498;-75
2023/02/24 12:33:30;;;;;;;13.33;1.37;;;;;;;6.95;45.20;100032.38;4956023;28;20573;-75
2023/02/24 12:36:18;;;;;;;15.77;1.17;;;;;;;6.60;44.97;100037.16;4960950;28;20046;-74
2023/02/24 12:38:51;;;;;;;10.35;0.90;;;;;;;5.77;46.07;100047.78;4954844;28;20491;-75
2023/02/24 12:41:43;;;;;;;8.40;0.80;;;;;;;5.64;46.95;100037.81;4958977;28;20038;-75
2023/02/24 12:44:24;;;;;;;22.55;1.33;;;;;;;5.24;48.18;100039.09;4959326;28;20038;-73
2023/02/24 12:47:10;;;;;;;11.25;0.55;;;;;;;5.16;47.42;100033.28;4952857;28;20046;-74
2023/02/24 12:49:51;;;;;;;5.40;0.50;;;;;;;5.72;47.27;100039.31;4954200;28;20037;-74
2023/02/24 12:52:39;;;;;;;1.70;0.20;;;;;;;5.78;45.64;100037.38;4938534;28;20066;-74
2023/02/24 12:55:17;;;;;;;3.63;0.50;;;;;;;5.65;46.59;100034.31;4939265;28;20532;-73
2023/02/24 12:58:01;;;;;;;2.30;0.05;;;;;;;6.34;46.20;100025.94;4946242;28;20541;-74
2023/02/24 13:00:47;;;;;;;2.00;0.20;;;;;;;6.01;46.30;100039.16;4960012;28;20093;-73
2023/02/24 13:03:44;;;;;;;3.33;0.65;;;;;;;6.07;46.43;100028.59;4955846;28;20105;-73
2023/02/24 13:06:22;;;;;;;0.93;0.15;;;;;;;6.12;46.51;100023.25;4957599;28;20808;-73
2023/02/24 13:08:59;;;;;;;3.88;0.30;;;;;;;5.62;47.43;100026.66;4954059;28;20045;-73
2023/02/24 13:11:36;;;;;;;1.85;0.20;;;;;;;6.38;46.96;100029.31;4953979;28;20058;-74
2023/02/24 13:14:33;;;;;;;1.77;0.08;;;;;;;6.01;47.72;100028.78;4957634;28;20054;-74
2023/02/24 13:17:08;;;;;;;3.67;0.28;;;;;;;5.98;47.63;100030.66;4956198;28;20050;-73
2023/02/24 13:19:34;;;;;;;3.63;0.30;;;;;;;5.52;48.62;100021.81;4954758;28;20508;-73
2023/02/24 13:22:11;;;;;;;8.50;0.28;;;;;;;5.40;49.04;100021.31;4956698;28;20046;-73
2023/02/24 13:24:58;;;;;;;5.10;0.75;;;;;;;5.78;48.88;100018.38;4952725;28;20034;-74
2023/02/24 13:27:27;;;;;;;7.82;0.30;;;;;;;5.77;49.76;100021.84;4953653;28;20045;-74
2023/02/24 13:29:58;;;;;;;3.50;0.15;;;;;;;6.11;49.12;100010.34;4954887;28;20034;-74
2023/02/24 13:32:35;;;;;;;2.60;0.30;;;;;;;5.98;49.40;100007.31;4957749;28;20847;-72
2023/02/24 13:35:23;;;;;;;4.57;0.52;;;;;;;5.67;51.02;100009.19;4957580;28;20042;-74
2023/02/24 13:37:49;;;;;;;11.85;0.40;;;;;;;5.67;51.59;99998.81;4953437;28;20149;-74
2023/02/24 13:40:15;;;;;;;4.95;0.70;;;;;;;5.82;51.54;99999.22;4955674;28;21030;-74
2023/02/24 13:42:42;;;;;;;6.25;0.30;;;;;;;5.08;52.90;99988.66;4952465;28;20155;-74
2023/02/24 13:45:12;;;;;;;4.45;0.75;;;;;;;5.36;52.27;99977.41;4956911;28;20038;-74
2023/02/24 13:47:43;;;;;;;2.92;0.20;;;;;;;4.93;53.07;99982.22;4951709;28;20058;-74
2023/02/24 13:50:18;;;;;;;2.50;0.10;;;;;;;5.22;53.26;99970.09;4960693;28;20061;-73
2023/02/24 13:52:50;;;;;;;3.75;0.20;;;;;;;5.79;50.79;99965.59;4962655;28;20687;-74
2023/02/24 13:55:18;;;;;;;4.50;0.30;;;;;;;5.84;50.15;99968.91;4958246;28;20044;-74
2023/02/24 13:57:53;;;;;;;8.73;0.20;;;;;;;6.22;49.71;99977.06;4955563;28;20081;-74
2023/02/24 14:00:31;;;;;;;3.72;0.55;;;;;;;4.98;52.64;99971.72;4968203;28;20072;-72
2023/02/24 14:02:58;;;;;;;4.13;0.10;;;;;;;5.06;53.83;99977.50;4954837;28;20145;-73
2023/02/24 14:05:32;;;;;;;7.47;0.70;;;;;;;4.73;54.83;99993.13;4969756;28;20018;-72
2023/02/24 14:07:58;;;;;;;5.78;0.20;;;;;;;4.36;55.53;99983.00;4971416;28;20046;-71
2023/02/24 14:10:30;;;;;;;2.50;0.28;;;;;;;4.31;54.98;99984.88;4979258;28;20069;-72
2023/02/24 14:13:18;;;;;;;2.80;0.15;;;;;;;4.18;54.21;99977.44;4967648;28;20145;-72
2023/02/24 14:15:45;;;;;;;2.13;0.10;;;;;;;4.49;53.84;99975.75;4953319;28;20069;-73
2023/02/24 14:18:20;;;;;;;4.78;0.30;;;;;;;4.31;55.16;99975.38;4961524;28;20053;-73